Skip Navigation LinksHome page > Weather > Current weather Skip Navigation Links

Current Weather

Chicago O'Hare Intl, Chicago

For information only: do not use for flight planning or navigation.
Latest weather
Observation time Monday, November 30, 2015 12:51 AM CST
Local time Monday, November 30, 2015 1:54 AM CST
Flight conditions Visual Meteorological Conditions
Wind direction East (90°)
Wind speed 9 mph
Visibility 10 mi.
Sky condition
Ceiling 9,500 ft. overcast
Cloud layer overcast 9,500 ft.
Temperature 39°F
Dewpoint 28°F
Altimeter 30.24 in.Hg
Derived measurements
Relative humidity 64%
Wind chill 33°F
Density altitude -962 ft.
Sea-level pressure 30.25 in.Hg
Automated weather observing station with precipitation discriminator.
METAR KORD 300651Z 09008KT 10SM OVC095 04/M02 A3024 RMK AO2 SLP245 T00391022


Location code

InnerDrive.Weather 4.0.5722.1 Release CLR 4.0.30319.34014
Copyright ©2015 Inner Drive Technology. All rights reserved. Portions Copyright ©1986-2015 David Braverman.

Find weather

Site navigation

Skip Navigation Links

Place info

Page info

PayPal - The safer, easier way to pay online!

Return home.

Copyright ©2015 Inner Drive Technology. Purveyors of fine, hand-crafted computer software. Page printed 2015-11-30T07:54:50 UTC.